Anza Borrego Desert Research Center, California Weather observations

Data are for 10 minute period ending at time listed.
 Day   Time   Solar   Ave.   Ave.  Ave.  Vector  Max.   Baro.   Total    
  of    of     Rad.   Air    Rel.  Wind   Wind   Wind  Press.  Precip.   
Year   Day            Temp.  Hum.  Speed  Dir.   Gust                    
2015   (PST)  Kw/m2    F      %     mph   deg.    mph    mb.     in.     
-------------------------------------------------------------------------
 209   15:50   0.57  104.4    13    4.8    71     7.9   976.7    0.00 
 209   16:00   0.53  104.5    13    3.6   340     8.1   976.6    0.00 
 209   16:10   0.50  104.6    13    5.5   143     9.4   976.5    0.00 
 209   16:20   0.47  104.3    13    7.6   114    11.9   976.4    0.00 
 209   16:30   0.43  105.0    12    2.1   175     4.9   976.4    0.00 
 209   16:40   0.40  105.7    12    4.0   205     7.8   976.3    0.00 
 209   16:50   0.36  105.0    12    4.1   148     8.8   976.3    0.00 
 209   17:00   0.33  105.8    12    2.7   159     5.6   976.2    0.00 
 209   17:10   0.29  104.9    12    6.2    91     9.1   976.1    0.00 
 209   17:20   0.25  104.0    13    4.8    96     9.2   976.1    0.00 
 209   17:30   0.21  103.9    13    5.4   112     8.1   976.1    0.00 
 209   17:40   0.09  103.5    13    2.7    86     8.8   976.1    0.00 
 209   17:50   0.03  101.6    13    5.1   108     9.6   976.2    0.00 
 209   18:00   0.02  100.9    14    4.8   101     6.9   976.3    0.00 
 209   18:10   0.01  100.4    14    5.4   105     7.5   976.4    0.00 
 209   18:20   0.01  100.0    14    5.6   102     8.4   976.5    0.00 
 209   18:30   0.01   99.6    15    5.5   108     7.3   976.7    0.00 
 209   18:40   0.01   99.0    15    5.3   110     7.5   976.8    0.00 
 209   18:50   0.00   98.3    16    4.1   111     5.0   976.9    0.00 
 209   19:00   0.00   97.1    16    3.1   124     4.5   977.0    0.00 
 209   19:10   0.00   95.6    16    2.1   206     3.8   977.2    0.00 
 209   19:20   0.00   94.6    17    3.8   244     5.1   977.3    0.00 
 209   19:30   0.00   93.1    18    4.7   244     5.5   977.5    0.00 
 209   19:40   0.00   92.8    18    5.1   235     6.9   977.5    0.00 
 209   19:50   0.00   94.2    17    6.5   240     8.3   976.7    0.00 
 209   20:00   0.00   94.0    17    5.7   244     7.4   976.2    0.00 
 209   20:10   0.00   92.5    18    6.9   243     8.3   974.9    0.00 
 209   20:20   0.00   93.0    18    6.9   248     9.2   746.0    0.00 
 209   20:30   0.00   93.0    18    7.5   253     8.8   502.1    0.00 
 209   20:40   0.00   93.2    18    6.8   248     8.3   502.1    0.00 
 209   20:50   0.00   94.0    18    6.5   248     9.1   502.1    0.00 
 209   21:00   0.00   94.1    18    6.0   250     7.9   502.1    0.00 
 209   21:10   0.00   93.5    19    5.5   261     7.1   502.1    0.00 
 209   21:20   0.00   93.9    19    4.6   264     6.7   502.1    0.00 
 209   21:30   0.00   93.0    20    4.9   262     7.1   502.1    0.00 
 209   21:40   0.00   93.8    20    4.6   264     7.1   502.1    0.00 
 209   21:50   0.00   93.9    20    1.7   271     3.7   502.1    0.00 
 209   22:00   0.00   92.8    21    0.9   191     2.3   502.1    0.00 
 209   22:10   0.00   92.1    22    1.8   216     3.1   502.1    0.00 
 209   22:20   0.00   92.0    23    2.1   230     3.6   502.1    0.00 
 209   22:30   0.00   90.1    24    3.9   256     5.2   502.1    0.00 
 209   22:40   0.00   90.1    25    4.6   235     5.5   502.1    0.00 
 209   22:50   0.00   90.5    25    4.2   242     5.6   502.1    0.00 
 209   23:00   0.00   89.6    25    3.5    12     5.6   502.1    0.00 
 209   23:10   0.00   89.1    25    1.6    36     3.1   502.1    0.00 
 209   23:20   0.00   88.6    25    2.5   200     3.4   502.0    0.00 
 209   23:30   0.00   88.0    25    4.6   222     5.6   502.0    0.00 
 209   23:40   0.00   88.2    26    5.7   229     6.8   502.0    0.00 
 209   23:50   0.00   89.5    25    6.2   241     7.1   502.0    0.00 
 210    0:00   0.00   88.6    26    7.0   246     7.5   502.0    0.00 
 210    0:10   0.00   88.0    26    7.0   244     7.5   502.0    0.00 
 210    0:20   0.00   88.0    27    7.1   248     7.9   502.0    0.00 
 210    0:30   0.00   88.7    28    6.0   259     7.2   502.0    0.00 
 210    0:40   0.00   89.3    27    2.8   277     4.7   502.0    0.00 
 210    0:50   0.00   88.5    28    4.3   100     6.4   502.0    0.00 
 210    1:00   0.00   87.1    28    4.0   117     4.5   502.0    0.00 
 210    1:10   0.00   87.4    29    4.7   183     7.3   502.0    0.00 
 210    1:20   0.00   88.0    28    3.8   227     6.6   502.0    0.00 
 210    1:30   0.00   88.4    28    2.9   159     9.5   502.0    0.00 
 210    1:40   0.00   88.0    28    8.1   163     9.9   502.0    0.00 
 210    1:50   0.00   87.2    29    5.7   186     7.6   502.0    0.00 
 210    2:00   0.00   87.4    30    3.3   179     7.2   502.0    0.00 
 210    2:10   0.00   87.2    34    4.0   175     7.2   502.0    0.00 
 210    2:20   0.00   87.0    39    3.3   196     5.8   502.0    0.00 
 210    2:30   0.00   86.4    42    3.5   213     6.2   502.0    0.00 
 210    2:40   0.00   86.6    43    4.5   211     5.8   502.0    0.00 
 210    2:50   0.00   86.5    43    5.7   181     8.0   502.0    0.00 
 210    3:00   0.00   86.4    44    5.9   154     9.4   502.0    0.00 
 210    3:10   0.00   86.0    45    3.6   144     5.6   502.0    0.00 
 210    3:20   0.00   84.9    46    1.1   145     5.5   502.0    0.00 
 210    3:30   0.00   84.5    50    6.3   147     9.3   502.0    0.00 
 210    3:40   0.00   84.6    52    5.4   164     7.9   502.0    0.00 
 210    3:50   0.00   84.0    52    2.0   276     4.3   502.0    0.00 
 210    4:00   0.00   83.4    52    2.8   321     3.6   502.0    0.00 
 210    4:10   0.00   83.2    53    2.8   341     3.8   502.0    0.00 
 210    4:20   0.00   82.7    54    3.1   327     3.9   502.0    0.00 
 210    4:30   0.00   82.1    54    1.4    16     3.2   502.0    0.00 
 210    4:40   0.00   81.4    55    1.3    68     3.0   502.0    0.00 
 210    4:50   0.00   81.3    56    2.5    79     3.7   502.0    0.00 
 210    5:00   0.00   81.2    58    2.8    78     4.5   502.0    0.00 
 210    5:10   0.00   80.2    59    2.4   204     4.4   502.0    0.00 
 210    5:20   0.00   79.8    60    2.2   238     3.2   502.0    0.00 
 210    5:30   0.01   80.0    59    0.9   242     2.6   502.0    0.00 
 210    5:40   0.05   80.2    57    1.2   319     2.2   502.0    0.00 
 210    5:50   0.08   83.8    53    0.7    76     1.1   502.0    0.00 
 210    6:00   0.11   86.9    51    0.2   230     0.9   502.0    0.00 
 210    6:10   0.14   88.8    49    0.8    96     2.3   502.0    0.00 
 210    6:20   0.17   87.2    52    1.9    89     3.0   502.0    0.00 
 210    6:30   0.20   86.8    53    3.2   135     5.7   502.0    0.00 
 210    6:40   0.23   86.2    57    5.1   125     7.7   502.0    0.00 
 210    6:50   0.27   85.7    59    7.5   122    10.7   502.0    0.00 
 210    7:00   0.30   85.8    59    6.7   115     9.6   502.0    0.00 
 210    7:10   0.33   86.6    57    6.8   128    11.3   502.0    0.00 
 210    7:20   0.36   87.0    58    7.0   119    11.7   502.0    0.00 
 210    7:30   0.40   87.0    58    8.4   125    12.3   502.0    0.00 
 210    7:40   0.43   87.5    59    8.0   118    12.4   502.1    0.00 
 210    7:50   0.47   87.3    60    8.3   111    13.0   502.1    0.00 
 210    8:00   0.51   88.1    59    6.1   131    11.4   502.1    0.00 
 210    8:10   0.56   89.0    58    3.8   113     9.9   502.1    0.00 
 210    8:20   0.65   89.8    57    2.8   113     7.6   502.1    0.00 
 210    8:30   0.67   89.7    57    5.2    94     9.2   502.1    0.00 
 210    8:40   0.66   90.3    56    5.4    81     9.5   877.2    0.00 
 210    8:50   0.68   89.9    54    5.0    97     9.1   984.0    0.00 
 210    9:00   0.54   90.6    53    3.3   142     8.6   983.9    0.00 
 210    9:10   0.71   91.5    51    1.4   229     4.2   983.8    0.00 
 210    9:20   0.74   93.0    49    1.0   271     4.1   983.7    0.00 
 210    9:30   0.78   92.5    50    1.8   146     5.2   983.5    0.00 
 210    9:40   0.77   92.7    49    4.0    69     7.3   983.4    0.00 
 210    9:50   0.84   93.9    47    1.9    62     5.2   983.3    0.00 
 210   10:00   0.85   94.8    45    3.8   131     8.9   983.2    0.00 
 210   10:10   0.85   93.9    44    5.0    55    10.4   983.2    0.00 
 210   10:20   0.82   94.2    44    5.8    32     9.7   983.1    0.00 
 210   10:30   0.85   93.8    45    4.9    10     9.9   983.1    0.00 
 210   10:40   0.70   95.0    43    3.0    52    10.3   983.1    0.00 
 210   10:50   0.59   95.1    43    4.0    43     8.0   983.0    0.00 
 210   11:00   0.85   95.2    43    4.5   140    10.1   982.9    0.00 
 210   11:10   0.88   97.0    41    7.1    60    20.8   982.8    0.00 
 210   11:20   1.04   97.7    40    6.0    89    22.4   982.8    0.00 
 210   11:30   1.11   98.1    38    8.0    82    15.0   982.7    0.00 
 210   11:40   0.89   98.0    39    9.3    94    17.0   982.6    0.00 
 210   11:50   0.94   96.2    42    8.5    87    17.2   982.5    0.00 
 210   12:00   1.12   97.1    41    8.9    54    15.7   982.6    0.00 
 210   12:10   1.08   98.1    39    7.8   107    15.1   982.5    0.00 
 210   12:20   1.03   98.5    38    3.4    69     9.6   982.4    0.00 
 210   12:30   1.02   98.3    39    5.9   106    12.1   982.4    0.00 
 210   12:40   0.94   99.2    37    4.4   107     9.4   982.3    0.00 
 210   12:50   0.93   99.2    37    5.0    86    11.0   982.2    0.00 
 210   13:00   0.92   98.7    36    7.5    82    15.2   982.1    0.00 
 210   13:10   0.91   98.9    35    8.4    78    14.0   982.0    0.00 
 210   13:20   0.92   98.5    34    8.9    82    15.5   982.0    0.00 
 210   13:30   0.89   99.4    34    5.4   125    11.8   981.9    0.00 
 210   13:40   0.84   99.6    35    6.4    77    11.7   981.6    0.00 
 210   13:50   0.83  100.1    34    5.7    99    11.5   981.5    0.00 
 210   14:00   0.82  100.7    34    4.5   100    11.8   981.3    0.00 
 210   14:10   0.80  100.3    34    6.0    44    10.2   981.2    0.00 
 210   14:20   0.77  100.7    34    6.8   118    13.6   981.1    0.00 
 210   14:30   0.76  100.9    34    7.8   100    12.2   981.0    0.00 
 210   14:40   0.73  100.0    34    4.6    79    10.9   980.7    0.00 
 210   14:50   0.61  101.2    33    6.0   122    12.7   980.4    0.00 
 210   15:00   0.68  101.0    33    4.7   128    13.9   980.3    0.00 
 210   15:10   0.66  101.5    33    6.6    83    15.5   980.1    0.00 
 210   15:20   0.55  100.6    33   10.8    94    18.6   980.1    0.00 
 210   15:30   0.64  100.8    33    6.6   116    14.0   980.1    0.00 
 210   15:40   0.46  101.8    32    8.5   105    17.0   980.1    0.00 

Return to Anza Borrego Desert Research Center graphs page.


Western Regional Climate Center,wrcc@dri.edu